createdAt,value
2023-03-26T00:02:48.204Z,22.38
2023-03-26T00:06:48.299Z,22.41
2023-03-26T00:10:48.439Z,22.40
2023-03-26T00:14:48.566Z,22.41
2023-03-26T00:18:48.733Z,22.38
2023-03-26T00:22:48.924Z,22.42
2023-03-26T00:26:48.988Z,22.36
2023-03-26T00:30:49.206Z,22.41
2023-03-26T00:34:49.350Z,22.52
2023-03-26T02:18:50.062Z,22.77
2023-03-26T02:22:50.071Z,22.96
2023-03-26T02:26:50.006Z,23.15
2023-03-26T02:30:49.950Z,23.33
2023-03-26T02:34:49.924Z,23.48
2023-03-26T02:38:49.893Z,23.64
2023-03-26T02:42:49.893Z,23.75
2023-03-26T02:46:49.817Z,23.90
2023-03-26T02:50:49.788Z,23.98
2023-03-26T02:54:49.745Z,24.11
2023-03-26T02:58:49.729Z,24.21
2023-03-26T03:02:49.726Z,24.30
2023-03-26T03:06:49.647Z,24.38
2023-03-26T03:10:49.578Z,24.41
2023-03-26T03:14:49.594Z,24.51
2023-03-26T03:18:49.648Z,24.58
2023-03-26T03:22:49.698Z,24.65
2023-03-26T03:26:49.727Z,24.74
2023-03-26T03:30:49.817Z,24.78
2023-03-26T03:34:49.880Z,24.82
2023-03-26T03:38:49.955Z,24.87
2023-03-26T03:42:50.063Z,24.90
2023-03-26T03:46:50.166Z,24.93
2023-03-26T03:50:50.229Z,24.98
2023-03-26T03:54:50.321Z,25.00
2023-03-26T03:58:52.039Z,25.04
2023-03-26T04:02:50.591Z,25.11
2023-03-26T04:06:50.602Z,25.14
2023-03-26T04:10:50.695Z,25.20
2023-03-26T04:14:50.807Z,25.25
2023-03-26T04:18:50.943Z,25.31
2023-03-26T04:22:51.053Z,25.34
2023-03-26T04:26:51.202Z,25.39
2023-03-26T04:30:51.332Z,25.41
2023-03-26T04:34:51.457Z,25.42
2023-03-26T04:38:51.620Z,25.43
2023-03-26T04:42:51.722Z,25.50
2023-03-26T04:46:51.872Z,25.50
2023-03-26T04:50:52.005Z,25.53
2023-03-26T04:54:52.158Z,25.48
2023-03-26T04:58:52.351Z,25.28
2023-03-26T05:02:52.620Z,25.14
2023-03-26T05:06:52.704Z,25.06
2023-03-26T05:10:53.047Z,25.13
2023-03-26T05:14:53.017Z,25.23
2023-03-26T05:18:53.162Z,25.34
2023-03-26T05:22:53.351Z,25.40
2023-03-26T05:26:53.528Z,25.51
2023-03-26T05:30:54.098Z,25.59
2023-03-26T05:34:53.946Z,25.63
2023-03-26T05:38:54.143Z,25.73
2023-03-26T05:42:54.327Z,25.74
2023-03-26T05:46:54.558Z,25.79
2023-03-26T05:50:55.006Z,25.84
2023-03-26T05:54:54.974Z,25.85
2023-03-26T05:58:54.948Z,25.89
2023-03-26T06:02:56.865Z,25.90
2023-03-26T06:06:54.956Z,25.93
2023-03-26T06:10:55.064Z,25.96
2023-03-26T06:14:54.896Z,25.96
2023-03-26T06:18:56.557Z,25.97
2023-03-26T06:22:54.779Z,25.93
2023-03-26T06:26:54.772Z,25.90
2023-03-26T06:30:55.024Z,25.84
2023-03-26T06:34:54.697Z,25.87
2023-03-26T06:38:54.630Z,25.92
2023-03-26T06:43:09.477Z,25.90
2023-03-26T06:46:55.617Z,25.89
2023-03-26T06:50:54.733Z,25.85
2023-03-26T06:54:54.681Z,25.83
2023-03-26T06:58:54.624Z,25.83
2023-03-26T07:02:54.634Z,25.80
2023-03-26T07:06:54.556Z,25.78
2023-03-26T07:10:54.661Z,25.77
2023-03-26T07:14:54.488Z,25.76
2023-03-26T07:18:54.451Z,25.72
2023-03-26T07:22:54.442Z,25.73
2023-03-26T07:26:54.380Z,25.67
2023-03-26T07:30:54.472Z,25.65
2023-03-26T07:34:54.356Z,25.59
2023-03-26T07:38:54.542Z,25.52
2023-03-26T07:42:54.782Z,25.44
2023-03-26T07:46:54.997Z,25.42
2023-03-26T07:50:55.374Z,25.37
2023-03-26T07:54:55.410Z,25.25
2023-03-26T07:58:55.605Z,25.20
2023-03-26T08:02:55.860Z,25.15
2023-03-26T08:06:55.932Z,25.13
2023-03-26T08:10:56.280Z,25.10
2023-03-26T08:14:56.322Z,25.03
2023-03-26T08:18:56.496Z,25.03
2023-03-26T08:22:56.705Z,24.97
2023-03-26T08:26:56.832Z,24.89
2023-03-26T08:30:57.439Z,24.80
2023-03-26T08:34:57.261Z,24.73
2023-03-26T08:38:57.344Z,24.72
2023-03-26T08:42:57.473Z,24.66
2023-03-26T08:46:57.642Z,24.63
2023-03-26T08:50:58.020Z,24.61
2023-03-26T08:54:57.918Z,24.56
2023-03-26T08:58:59.647Z,24.50
2023-03-26T09:02:58.286Z,24.49
2023-03-26T09:06:58.349Z,24.52
2023-03-26T09:10:58.486Z,24.53
2023-03-26T09:14:58.638Z,24.56
2023-03-26T09:18:58.727Z,24.61
2023-03-26T09:22:58.904Z,24.62
2023-03-26T09:26:59.028Z,24.64
2023-03-26T09:30:59.159Z,24.69
2023-03-26T09:34:59.257Z,24.73
2023-03-26T09:38:59.373Z,24.73
2023-03-26T09:42:59.515Z,24.74
2023-03-26T09:46:59.635Z,24.74
2023-03-26T09:50:59.719Z,24.74
2023-03-26T09:54:59.838Z,24.78
2023-03-26T09:58:59.964Z,24.78
2023-03-26T10:03:00.036Z,24.78
2023-03-26T10:07:00.131Z,24.78
2023-03-26T10:11:00.244Z,24.73
2023-03-26T10:15:00.300Z,24.73
2023-03-26T10:19:00.408Z,24.70
2023-03-26T10:23:00.455Z,24.66
2023-03-26T10:27:09.159Z,24.64
2023-03-26T10:31:01.546Z,24.66
2023-03-26T10:35:00.432Z,24.66
2023-03-26T10:39:00.436Z,24.66
2023-03-26T10:43:00.351Z,24.70
2023-03-26T10:47:00.338Z,24.73
2023-03-26T10:51:00.344Z,24.70
2023-03-26T10:55:00.432Z,24.78
2023-03-26T10:59:00.505Z,24.78
2023-03-26T11:03:00.579Z,24.83
2023-03-26T11:07:00.673Z,24.82
2023-03-26T11:11:00.745Z,24.80
2023-03-26T11:15:00.812Z,24.80
2023-03-26T11:19:00.881Z,24.81
2023-03-26T11:23:00.906Z,24.83
2023-03-26T11:27:14.623Z,24.80
2023-03-26T11:31:01.958Z,24.82
2023-03-26T11:35:00.894Z,24.81
2023-03-26T11:39:00.861Z,24.81
2023-03-26T11:43:00.800Z,24.78
2023-03-26T11:47:00.802Z,24.77
2023-03-26T11:51:00.747Z,24.74
2023-03-26T11:55:00.744Z,24.75
2023-03-26T11:59:00.661Z,24.74
2023-03-26T12:03:00.661Z,24.74
2023-03-26T12:07:00.602Z,24.73
2023-03-26T12:11:00.578Z,24.66
2023-03-26T12:15:00.525Z,24.64
2023-03-26T12:19:00.515Z,24.69
2023-03-26T12:23:00.540Z,24.71
2023-03-26T12:27:00.537Z,24.78
2023-03-26T12:31:00.522Z,24.79
2023-03-26T12:35:00.496Z,24.78
2023-03-26T12:39:17.188Z,24.80
2023-03-26T12:44:55.789Z,24.80
2023-03-26T12:47:57.902Z,24.82
2023-03-26T12:51:01.401Z,24.81
2023-03-26T12:55:00.389Z,24.80
2023-03-26T12:59:00.328Z,24.84
2023-03-26T13:03:00.368Z,24.88
2023-03-26T13:07:02.328Z,24.89
2023-03-26T13:11:00.207Z,24.97
2023-03-26T13:15:00.175Z,25.15
2023-03-26T13:19:00.157Z,25.33
2023-03-26T13:23:00.134Z,25.60
2023-03-26T13:27:00.279Z,25.75
2023-03-26T13:31:00.443Z,26.00
2023-03-26T13:35:00.500Z,26.44
2023-03-26T13:39:00.794Z,26.80
2023-03-26T13:43:00.464Z,26.98
2023-03-26T13:47:00.459Z,27.33
2023-03-26T13:51:00.477Z,27.53
2023-03-26T13:55:00.478Z,27.75
2023-03-26T13:59:00.474Z,27.94
2023-03-26T14:03:00.550Z,28.14
2023-03-26T14:07:00.487Z,28.54
2023-03-26T14:11:00.475Z,28.78
2023-03-26T14:15:00.507Z,28.88
2023-03-26T14:19:00.511Z,29.00
2023-03-26T14:23:00.529Z,29.08
2023-03-26T14:27:00.570Z,29.21
2023-03-26T14:31:00.621Z,29.51
2023-03-26T14:35:00.615Z,29.88
2023-03-26T14:39:00.615Z,30.29
2023-03-26T14:43:00.671Z,30.49
2023-03-26T14:47:00.734Z,30.69
2023-03-26T14:51:00.742Z,30.85
2023-03-26T14:55:00.788Z,30.97
2023-03-26T14:59:00.788Z,31.15
2023-03-26T15:03:00.850Z,31.29
2023-03-26T15:07:00.919Z,31.42
2023-03-26T15:11:01.015Z,31.53
2023-03-26T15:15:01.058Z,31.62
2023-03-26T15:19:01.116Z,31.68
2023-03-26T15:23:01.193Z,31.78
2023-03-26T15:27:01.391Z,31.83
2023-03-26T15:31:01.382Z,31.88
2023-03-26T15:35:01.503Z,31.85
2023-03-26T15:39:01.517Z,31.86
2023-03-26T15:43:01.717Z,31.86
2023-03-26T15:47:01.702Z,31.90
2023-03-26T15:51:01.777Z,31.92
2023-03-26T15:55:01.930Z,32.02
2023-03-26T15:59:02.004Z,32.15
2023-03-26T16:03:02.101Z,32.24
2023-03-26T16:07:02.169Z,32.34
2023-03-26T16:11:02.283Z,32.44
2023-03-26T16:15:02.408Z,32.63
2023-03-26T16:19:02.478Z,32.84
2023-03-26T16:23:02.673Z,32.99
2023-03-26T16:27:02.703Z,33.11
2023-03-26T16:31:02.876Z,33.17
2023-03-26T16:35:03.840Z,33.18
2023-03-26T16:39:02.790Z,33.19
2023-03-26T16:43:02.763Z,33.21
2023-03-26T16:47:02.723Z,33.21
2023-03-26T16:51:02.835Z,33.30
2023-03-26T16:55:02.996Z,33.31
2023-03-26T16:59:03.145Z,33.38
2023-03-26T17:03:03.333Z,33.39
2023-03-26T17:07:03.409Z,33.42
2023-03-26T17:11:03.546Z,33.49
2023-03-26T17:15:03.689Z,33.50
2023-03-26T17:19:03.792Z,33.47
2023-03-26T17:23:03.886Z,33.44
2023-03-26T17:27:03.992Z,33.49
2023-03-26T17:31:04.204Z,33.50
2023-03-26T17:35:04.262Z,33.57
2023-03-26T17:39:04.393Z,33.63
2023-03-26T17:43:04.723Z,33.70
2023-03-26T17:47:04.724Z,33.76
2023-03-26T17:51:04.857Z,33.83
2023-03-26T17:55:04.995Z,33.87
2023-03-26T17:59:11.526Z,33.93
2023-03-26T18:03:06.226Z,33.92
2023-03-26T18:07:05.115Z,33.92
2023-03-26T18:11:05.063Z,33.90
2023-03-26T18:15:05.218Z,33.90
2023-03-26T18:19:05.398Z,33.93
2023-03-26T18:23:05.589Z,34.01
2023-03-26T18:27:05.759Z,34.10
2023-03-26T18:31:05.969Z,34.23
2023-03-26T18:35:06.156Z,34.24
2023-03-26T18:39:06.380Z,34.27
2023-03-26T18:43:06.615Z,34.34
2023-03-26T18:47:06.822Z,34.44
2023-03-26T18:51:07.034Z,34.53
2023-03-26T18:55:07.209Z,34.44
2023-03-26T18:59:07.459Z,34.48
2023-03-26T19:03:07.797Z,34.45
2023-03-26T19:07:07.906Z,34.42
2023-03-26T19:11:07.871Z,34.45
2023-03-26T19:15:07.867Z,34.44
2023-03-26T19:19:07.952Z,34.46
2023-03-26T19:23:07.762Z,34.52
2023-03-26T19:27:07.729Z,34.57
2023-03-26T19:31:07.721Z,34.57
2023-03-26T19:35:07.684Z,34.54
2023-03-26T19:39:07.628Z,34.48
2023-03-26T19:43:07.604Z,34.40
2023-03-26T19:47:07.737Z,34.27
2023-03-26T19:51:07.610Z,34.25
2023-03-26T19:55:07.590Z,34.23
2023-03-26T19:59:07.512Z,34.26
2023-03-26T20:03:07.546Z,34.22
2023-03-26T20:07:07.476Z,34.31
2023-03-26T20:11:07.427Z,34.31
2023-03-26T20:15:07.421Z,34.41
2023-03-26T20:19:08.383Z,34.43
2023-03-26T20:23:07.330Z,34.49
2023-03-26T20:27:07.436Z,34.53
2023-03-26T20:31:07.660Z,34.50
2023-03-26T20:35:08.225Z,34.54
2023-03-26T20:39:08.295Z,34.53
2023-03-26T20:43:08.049Z,34.57
2023-03-26T20:47:08.124Z,34.45
2023-03-26T20:51:08.082Z,34.38
2023-03-26T20:55:08.108Z,34.31
2023-03-26T20:59:11.402Z,34.28
2023-03-26T21:03:08.114Z,34.30
2023-03-26T21:07:17.726Z,34.33
2023-03-26T21:11:08.954Z,34.41
2023-03-26T21:15:13.597Z,34.43
2023-03-26T21:19:08.854Z,34.44
2023-03-26T21:23:07.821Z,34.43
2023-03-26T21:27:07.779Z,34.41
2023-03-26T21:31:07.754Z,34.42
2023-03-26T21:35:07.774Z,34.41
2023-03-26T21:39:07.724Z,34.42
2023-03-26T21:43:07.719Z,34.37
2023-03-26T21:47:09.531Z,34.34
2023-03-26T21:51:07.796Z,34.32
2023-03-26T21:55:07.869Z,34.36
2023-03-26T21:59:07.877Z,34.33
2023-03-26T22:03:07.971Z,34.35
2023-03-26T22:07:07.988Z,34.36
2023-03-26T22:11:07.977Z,34.37
2023-03-26T22:15:08.010Z,34.39
2023-03-26T22:19:08.012Z,34.39
2023-03-26T22:23:08.078Z,34.39
2023-03-26T22:27:08.141Z,34.36
2023-03-26T22:31:08.331Z,34.35
2023-03-26T22:35:08.315Z,34.36
2023-03-26T22:39:08.332Z,34.33
2023-03-26T22:43:08.414Z,34.27
2023-03-26T22:47:08.501Z,34.17
2023-03-26T22:51:08.628Z,34.12
2023-03-26T22:55:08.683Z,34.03
2023-03-26T22:59:08.768Z,33.93
2023-03-26T23:03:08.922Z,33.80
2023-03-26T23:07:08.968Z,33.72
2023-03-26T23:11:09.037Z,33.66
2023-03-26T23:15:09.093Z,33.67
2023-03-26T23:19:09.212Z,33.60
2023-03-26T23:23:09.326Z,33.56
2023-03-26T23:27:09.432Z,33.56
2023-03-26T23:31:09.614Z,33.53
2023-03-26T23:35:09.690Z,33.59
2023-03-26T23:39:09.794Z,33.56
2023-03-26T23:43:09.900Z,33.57
2023-03-26T23:47:09.997Z,33.55
2023-03-26T23:51:10.136Z,33.61
2023-03-26T23:55:10.280Z,33.62
2023-03-26T23:59:10.464Z,33.65
